map of EWB home
EWB - Airport
Location
City:  New Bedford, Massachusetts, United States
Name:New Bedford Regional
ICAO:KEWB
IATA:EWB
FAA LID:EWB

Details
Type:Airport (Part 139 Class I)
Use:Public/Civil, International (customs landing rights)
Latitude:4140'36"N (41.676566)
Longitude:7057'28"W (-70.957835)
Datum:WGS 1984
Elevation:79 ft (24 m)
Variation:14.52W (WMM2015 magnetic declination)
0.06 annual change
Runways:2
Longest:5400 × 150 ft (1646 × 45.5 m), paved

Time
Time Zone:UTC-5 (DST-4)
Local Time:

Weather
METAR:KEWB 121253Z 09004KT 10SM FEW030 SCT037 OVC110 03/02 A2977 RMK AO2 PRESFR SLP081 T00280017

Related Locations
Nearby:
Farthest:MQZ: 11805 mi / 18998 km
Margaret River [Margaret River Airport], WA, AU

Find:

   beyond  
but within

Other Information
Maps:
Delays:
NOTAMs:
Links:
Sources:

  
flag of United States
flag of Massachusetts
  

Airport Diagram

Airport diagram for EWB

Airport diagram PDF

Sectional Chart

Flight Planning
at skyvector.com

Satellite Image

Google Maps Satellite view

 

Copyright © 2004-2017 Karl L. Swartz. All rights reserved.
The Great Circle Mapper name and logo are trademarks of the Great Circle Mapper.
All other trademarks mentioned herein belong to their respective owners.
Please see credits for attibutions and further copyright information.

  Follow gcmap on Facebook Follow gcmap on Twitter Follow gcmap on Google+ GCmap on LinkedIn

hCard Microformat

Geo Microformat